Metar Cercanos

 

LEPA - Palma De Mallorc, Spain
Distance from station: ONO 38km
Actualización: 23/02/2018 07:30
Few Clouds
Few Clouds
 Viento del calm
Viento: Calma
Temperatura: 1°C
Rocío: 1°C
Humedad: 100%
Barómetro: 1006 hPa
Clouds: Few Clouds
Visibility: 10 km
Cloud details: Few Clouds 610 m
2018/02/23 06:30 LEPA 230630Z 00000KT 9999 FEW020 01/01 Q1006 NOSIG
LEMH - Mahon/Menorca Is, Spain
Distance from station: ENE 105km
Actualización: 23/02/2018 07:30
Muy nuboso
Muy nuboso
 Viento del N
Viento: N 17 km/h
Temperatura: 7°C
Sensación frio: 4°C
Rocío: 2°C
Humedad: 71%
Barómetro: 1005 hPa
Clouds: Muy nuboso
Visibility: 10 km
Cloud details: Few Clouds 762 m
Muy nuboso 1219 m
2018/02/23 06:30 LEMH 230630Z 01009KT 9999 FEW025 BKN040 07/02 Q1005
 
LEIB - Ibiza/Es Codola, Spain
Distance from station: OSO 165km
Actualización: 23/02/2018 07:30
Muy nuboso
Muy nuboso
 Viento del NNO
Viento: NNO 7 km/h
Temperatura: 6°C
Sensación frio: 4°C
Rocío: 4°C
Humedad: 87%
Barómetro: 1006 hPa
Clouds: Muy nuboso
Visibility: 10 km
Cloud details: Few Clouds 610 m
Parcialmente nuboso 1067 m
Muy nuboso 1524 m
2018/02/23 06:30 LEIB 230630Z 33004KT 300V010 9999 FEW020TCU SCT035 BKN050 06/04 Q1006 NOSIG
LEBL - Barcelona Airpor, Spain
Distance from station: NNO 225km
Actualización: 23/02/2018 07:30
Parcialmente nuboso
Parcialmente nuboso
 Viento del NNO
Viento: NNO 11 km/h
Temperatura: 5°C
Sensación frio: 2°C
Rocío: 3°C
Humedad: 87%
Barómetro: 1006 hPa
Clouds: Parcialmente nuboso
Visibility: 10 km
Cloud details: Few Clouds 975 m
Parcialmente nuboso 1676 m
2018/02/23 06:30 LEBL 230630Z 34006KT 9999 FEW032 SCT055 05/03 Q1006 NOSIG
 
LEVC - Valencia (civ/Mi, Spain
Distance from station: NO 188km
Actualización: 23/02/2018 07:30
Few Clouds
Few Clouds
 Viento del OSO
Viento: OSO 7 km/h
Temperatura: 0°C
Sensación frio: -3°C
Rocío: -6°C
Humedad: 64%
Barómetro: 1007 hPa
Clouds: Few Clouds
Visibility: 10 km
Cloud details: Few Clouds 914 m
2018/02/23 06:30 LEVC 230630Z 25004KT 9999 FEW030 M00/M06 Q1007 NOSIG
LEGE - Gerona/Costa Bra, Spain
Distance from station: N 276km
Actualización: 23/02/2018 07:30
Cubierto
Cubierto
 Viento del N
Viento: N 4 km/h
Temperatura: 2°C
Rocío: -1°C
Humedad: 81%
Barómetro: 1006 hPa
Clouds: Cubierto
Visibility: 9 km
Cloud details: Cubierto 1250 m
2018/02/23 06:30 LEGE 230630Z 01002KT 9000 OVC041 02/M01 Q1006
 
LEAL - Alicante/El Alte, Spain
Distance from station: OSO 344km
Actualización: 23/02/2018 07:30
Despejado
Despejado
 Viento del NO
Viento: NO 22 km/h
Temperatura: 5°C
Sensación frio: 1°C
Rocío: -9°C
Humedad: 36%
Barómetro: 1006 hPa
Resumen: Despejado
Visibility: greater than 10 km
2018/02/23 06:30 LEAL 230630Z 31012KT CAVOK 05/M09 Q1006 NOSIG
LEAM - Almeria Airport, Spain
Distance from station: SSO 56km
Actualización: 23/02/2018 07:30
Despejado
Despejado
 Viento del NNO
Viento: NNO 13 km/h
Temperatura: 7°C
Sensación frio: 5°C
Rocío: -5°C
Humedad: 42%
Barómetro: 1005 hPa
Resumen: Despejado
Visibility: greater than 10 km
2018/02/23 06:30 LEAM 230630Z 34007KT 300V010 CAVOK 07/M05 Q1005
 
LEZG - Zaragoza (mil/Ci, Spain
Distance from station: NO 431km
Actualización: 23/02/2018 07:30
Despejado
Despejado
 Viento del O
Viento: O 22 km/h
Temperatura: 1°C
Sensación frio: -4°C
Rocío: -3°C
Humedad: 75%
Barómetro: 1007 hPa
Resumen: Despejado
Visibility: greater than 10 km
2018/02/23 06:30 LEZG 230630Z 28012KT CAVOK 01/M03 Q1007
LEMD - Madrid/Barajas, Spain
Distance from station: ONO 234km
Actualización: 23/02/2018 07:30
Despejado
Despejado
 Viento del NNO
Viento: NNO 7 km/h
Temperatura: -5°C
Sensación frio: -8°C
Rocío: -10°C
Humedad: 68%
Barómetro: 1007 hPa
Resumen: Despejado
Visibility: greater than 10 km
2018/02/23 06:30 LEMD 230630Z 34004KT CAVOK M05/M10 Q1007 NOSIG
 
LEGR - Granada Airport, Spain
Distance from station: OSO 62km
Actualización: 23/02/2018 07:30
Despejado
Despejado
 Viento del calm
Viento: Calma
Temperatura: -3°C
Rocío: -5°C
Humedad: 86%
Barómetro: 1005 hPa
Resumen: Despejado
Visibility: greater than 10 km
2018/02/23 06:30 LEGR 230630Z 00000KT CAVOK M03/M05 Q1005
LEMG - Malaga (civ/Mil), Spain
Distance from station: OSO 227km
Actualización: 23/02/2018 07:30
Despejado
Despejado
 Viento del ONO
Viento: ONO 15 km/h
Temperatura: 4°C
Sensación frio: 1°C
Rocío: -2°C
Humedad: 65%
Barómetro: 1005 hPa
Resumen: Despejado
Visibility: greater than 10 km
2018/02/23 06:30 LEMG 230630Z 30008KT CAVOK 04/M02 Q1005 NOSIG
 
LEZL - Sevilla (civ/Mil, Spain
Distance from station: S 318km
Actualización: 23/02/2018 07:30
Despejado
Despejado
 Viento del NE
Viento: NE 15 km/h
Temperatura: 4°C
Sensación frio: 1°C
Rocío: -3°C
Humedad: 61%
Barómetro: 1006 hPa
Resumen: Despejado
Visibility: greater than 10 km
2018/02/23 06:30 LEZL 230630Z 04008KT CAVOK 04/M03 Q1006 NOSIG
LEVT - Vitoria, Spain
Distance from station: NO 226km
Actualización: 23/02/2018 07:30
Few Clouds
Few Clouds
 Viento del varies
Viento: varies 4 km/h
Temperatura: -3°C
Rocío: -3°C
Humedad: 100%
Barómetro: 1009 hPa
Clouds: Few Clouds
Visibility: 8 km
Cloud details: Few Clouds 914 m
2018/02/23 06:30 LEVT 230630Z VRB02KT 8000 FEW030 M03/M03 Q1009
 
LEBB - Bilbao/Sondica, Spain
Distance from station: NNO 235km
Actualización: 23/02/2018 07:30
Muy nuboso
Muy nuboso
 Viento del E
Viento: E 7 km/h
Temperatura: 1°C
Sensación frio: -2°C
Rocío: 0°C
Humedad: 93%
Barómetro: 1011 hPa
Clouds: Muy nuboso
Visibility: 10 km
Cloud details: Muy nuboso 1219 m
2018/02/23 06:30 LEBB 230630Z 10004KT 080V150 9999 BKN040 01/00 Q1011 NOSIG
LESO - San Sebastian/Fu, Spain
Distance from station: N 231km
Actualización: 23/02/2018 07:30
Parcialmente nuboso
Parcialmente nuboso
 Viento del S
Viento: S 6 km/h
Temperatura: 0°C
Rocío: -2°C
Humedad: 87%
Barómetro: 1011 hPa
Clouds: Parcialmente nuboso
Visibility: 10 km
Cloud details: Parcialmente nuboso 1067 m
2018/02/23 06:30 LESO 230630Z 19003KT 160V230 9999 SCT035 00/M02 Q1011
 
LEVD - Valladolid(Mil/C, Spain
Distance from station: ONO 239km
Actualización: 23/02/2018 07:30
Despejado
Despejado
 Viento del NE
Viento: NE 7 km/h
Temperatura: -6°C
Sensación frio: -10°C
Rocío: -8°C
Humedad: 86%
Barómetro: 1008 hPa
Resumen: Despejado
Visibility: greater than 10 km
2018/02/23 06:30 LEVD 230630Z 05004KT CAVOK M06/M08 Q1008
LESA - Salamanca (civ/M, Spain
Distance from station: ONO 349km
Actualización: 23/02/2018 07:30
Despejado
Despejado
 Viento del SSE
Viento: SSE 6 km/h
Temperatura: -7°C
Rocío: -9°C
Humedad: 86%
Barómetro: 1008 hPa
Resumen: Despejado
Visibility: greater than 10 km
2018/02/23 06:30 LESA 230630Z 15003KT 080V190 CAVOK M07/M09 Q1008
 
LEXJ - Santander/Paraya, Spain
Distance from station: NNO 247km
Actualización: 23/02/2018 07:30
Parcialmente nuboso
Parcialmente nuboso
 Viento del varies
Viento: varies 2 km/h
Temperatura: 2°C
Rocío: 0°C
Humedad: 87%
Barómetro: 1012 hPa
Clouds: Parcialmente nuboso
Visibility: 8 km
Cloud details: Parcialmente nuboso 1036 m
2018/02/23 06:30 LEXJ 230630Z VRB01KT 8000 SCT034 02/M00 Q1012
LEAS - Asturias/Aviles, Spain
Distance from station: NO 214km
Actualización: 23/02/2018 07:30
Despejado
Despejado
 Viento del SSE
Viento: SSE 6 km/h
Temperatura: 3°C
Rocío: -4°C
Humedad: 60%
Barómetro: 1010 hPa
Resumen: Despejado
Visibility: greater than 10 km
2018/02/23 06:30 LEAS 230630Z 15003KT 100V170 CAVOK 03/M04 Q1010 NOSIG
 
LECO - La Coruna/Alvedr, Spain
Distance from station: ONO 222km
Actualización: 23/02/2018 07:30
Patches of fog, Parcialmente nuboso
Patches of fog, Parcialmente nuboso
 Viento del S
Viento: S 9 km/h
Temperatura: 0°C
Sensación frio: -3°C
Rocío: -1°C
Humedad: 93%
Barómetro: 1007 hPa
Resumen: Patches of Fog
Clouds: Parcialmente nuboso
Visibility: 10 km
2018/02/23 06:30 LECO 230630Z 18005KT 9999 BCFG NSC M00/M01 Q1007 NOSIG
LEVX - Vigo/Peinador, Spain
Distance from station: O 214km
Actualización: 23/02/2018 07:30
Parcialmente nuboso
Parcialmente nuboso
 Viento del OSO
Viento: OSO 7 km/h
Temperatura: 3°C
Sensación frio: 1°C
Rocío: 1°C
Humedad: 87%
Barómetro: 1007 hPa
Clouds: Parcialmente nuboso
Visibility: 8 km
2018/02/23 06:30 LEVX 230630Z 25004KT 170V290 8000 NSC 03/01 Q1007 NOSIG